createdAt,value
2023-08-07T00:00:55.997Z,80.00
2023-08-07T00:03:22.988Z,80.10
2023-08-07T00:05:49.749Z,79.80
2023-08-07T00:08:16.352Z,80.30
2023-08-07T00:10:43.097Z,79.70
2023-08-07T00:13:09.749Z,79.80
2023-08-07T00:15:38.936Z,79.90
2023-08-07T00:18:05.588Z,79.90
2023-08-07T00:20:32.209Z,80.00
2023-08-07T00:22:58.820Z,80.00
2023-08-07T00:25:25.437Z,79.80
2023-08-07T00:27:52.067Z,79.80
2023-08-07T00:30:18.646Z,79.80
2023-08-07T00:32:45.371Z,80.40
2023-08-07T00:35:12.028Z,79.90
2023-08-07T00:37:38.650Z,80.10
2023-08-07T00:40:05.589Z,80.40
2023-08-07T00:42:32.317Z,79.90
2023-08-07T00:44:59.013Z,79.90
2023-08-07T00:47:25.756Z,79.80
2023-08-07T00:49:52.392Z,80.00
2023-08-07T00:52:20.466Z,79.80
2023-08-07T00:54:47.489Z,79.70
2023-08-07T00:57:17.998Z,80.20
2023-08-07T00:59:45.038Z,79.80
2023-08-07T01:02:13.282Z,79.70
2023-08-07T01:04:40.417Z,79.60
2023-08-07T01:07:07.243Z,80.10
2023-08-07T01:09:34.260Z,79.60
2023-08-07T01:12:07.272Z,79.90
2023-08-07T01:14:34.544Z,79.80
2023-08-07T01:17:10.618Z,79.70
2023-08-07T01:19:37.542Z,79.60
2023-08-07T01:22:07.945Z,79.80
2023-08-07T01:24:35.115Z,79.60
2023-08-07T01:27:08.037Z,79.70
2023-08-07T01:29:37.940Z,79.80
2023-08-07T01:32:05.768Z,79.70
2023-08-07T01:34:32.954Z,79.80
2023-08-07T01:36:59.775Z,79.60
2023-08-07T01:39:26.780Z,79.80
2023-08-07T01:41:53.454Z,79.70
2023-08-07T01:44:20.085Z,79.70
2023-08-07T01:46:46.710Z,79.50
2023-08-07T01:49:13.378Z,79.60
2023-08-07T01:51:39.994Z,80.00
2023-08-07T01:54:06.569Z,80.10
2023-08-07T01:56:33.195Z,79.50
2023-08-07T01:58:59.798Z,79.50
2023-08-07T02:01:26.495Z,79.60
2023-08-07T02:03:53.132Z,80.20
2023-08-07T02:06:19.766Z,80.30
2023-08-07T02:08:46.363Z,80.30
2023-08-07T02:11:13.096Z,79.80
2023-08-07T02:13:39.694Z,79.80
2023-08-07T02:16:06.413Z,79.60
2023-08-07T02:18:33.028Z,79.60
2023-08-07T02:20:59.658Z,79.80
2023-08-07T02:23:26.262Z,79.80
2023-08-07T02:25:52.882Z,80.50
2023-08-07T02:28:19.505Z,79.80
2023-08-07T02:30:48.212Z,80.00
2023-08-07T02:33:14.900Z,79.60
2023-08-07T02:35:41.507Z,79.50
2023-08-07T02:38:08.093Z,79.60
2023-08-07T02:40:34.712Z,80.00
2023-08-07T02:43:01.329Z,80.20
2023-08-07T02:45:28.009Z,79.80
2023-08-07T02:47:54.627Z,79.80
2023-08-07T02:50:21.262Z,79.90
2023-08-07T02:52:47.824Z,80.20
2023-08-07T02:55:14.501Z,80.10
2023-08-07T02:57:41.200Z,79.90
2023-08-07T03:00:08.347Z,80.40
2023-08-07T03:05:01.750Z,79.90
2023-08-07T03:07:28.362Z,79.90
2023-08-07T03:09:55.023Z,80.30
2023-08-07T03:12:22.369Z,79.90
2023-08-07T03:14:48.980Z,79.90
2023-08-07T03:17:15.601Z,80.60
2023-08-07T03:19:43.494Z,80.20
2023-08-07T03:22:10.450Z,79.80
2023-08-07T03:24:37.070Z,80.00
2023-08-07T03:27:03.852Z,80.10
2023-08-07T03:29:30.669Z,80.20
2023-08-07T03:31:57.528Z,80.10
2023-08-07T03:34:24.132Z,80.40
2023-08-07T03:36:50.753Z,80.20
2023-08-07T03:39:17.423Z,80.10
2023-08-07T03:41:44.127Z,80.30
2023-08-07T03:44:10.953Z,80.10
2023-08-07T03:46:37.640Z,80.10
2023-08-07T03:49:04.393Z,80.10
2023-08-07T03:51:31.746Z,80.10
2023-08-07T03:53:58.344Z,80.20
2023-08-07T03:56:25.161Z,80.60
2023-08-07T03:58:51.829Z,80.10
2023-08-07T04:01:18.702Z,80.10
2023-08-07T04:03:47.406Z,80.20
2023-08-07T04:06:16.924Z,80.60
2023-08-07T04:08:45.830Z,80.20
2023-08-07T04:11:12.519Z,80.30
2023-08-07T04:13:39.610Z,80.20
2023-08-07T04:16:06.623Z,80.20
2023-08-07T04:18:33.533Z,80.20
2023-08-07T04:21:00.289Z,80.90
2023-08-07T04:23:26.986Z,80.40
2023-08-07T04:25:54.315Z,80.30
2023-08-07T04:28:21.348Z,80.30
2023-08-07T04:30:51.313Z,80.20
2023-08-07T04:33:17.984Z,80.40
2023-08-07T04:35:44.742Z,80.40
2023-08-07T04:38:11.352Z,80.90
2023-08-07T04:40:37.986Z,80.60
2023-08-07T04:43:04.592Z,80.30
2023-08-07T04:45:31.190Z,80.20
2023-08-07T04:47:57.942Z,80.30
2023-08-07T04:50:24.726Z,80.70
2023-08-07T04:52:51.486Z,80.10
2023-08-07T04:55:18.076Z,80.20
2023-08-07T04:57:44.882Z,80.40
2023-08-07T05:00:11.823Z,80.30
2023-08-07T05:02:38.554Z,80.30
2023-08-07T05:05:05.623Z,80.40
2023-08-07T05:07:34.028Z,80.30
2023-08-07T05:10:00.842Z,80.60
2023-08-07T05:12:27.518Z,80.90
2023-08-07T05:14:54.142Z,80.40
2023-08-07T05:17:20.848Z,80.40
2023-08-07T05:19:47.531Z,80.40
2023-08-07T05:22:14.252Z,80.30
2023-08-07T05:24:40.901Z,80.30
2023-08-07T05:27:09.309Z,80.40
2023-08-07T05:29:44.103Z,80.30
2023-08-07T05:32:14.767Z,80.30
2023-08-07T05:34:41.893Z,80.10
2023-08-07T05:37:09.073Z,80.30
2023-08-07T05:39:36.254Z,80.30
2023-08-07T05:42:03.030Z,80.30
2023-08-07T05:44:30.209Z,80.30
2023-08-07T05:46:56.910Z,80.30
2023-08-07T05:49:25.539Z,80.30
2023-08-07T05:51:53.024Z,80.30
2023-08-07T05:54:19.606Z,80.30
2023-08-07T05:56:46.220Z,80.30
2023-08-07T05:59:12.920Z,80.40
2023-08-07T06:01:39.587Z,80.30
2023-08-07T06:04:06.256Z,80.30
2023-08-07T06:06:35.758Z,80.70
2023-08-07T06:09:03.739Z,80.30
2023-08-07T06:11:30.492Z,80.30
2023-08-07T06:13:57.387Z,80.20
2023-08-07T06:16:24.082Z,80.10
2023-08-07T06:18:50.758Z,80.20
2023-08-07T06:21:17.400Z,80.40
2023-08-07T06:23:44.183Z,80.10
2023-08-07T06:26:10.825Z,80.40
2023-08-07T06:28:40.410Z,80.10
2023-08-07T06:31:08.068Z,80.20
2023-08-07T06:33:35.213Z,80.60
2023-08-07T06:36:02.061Z,80.10
2023-08-07T06:38:28.838Z,80.10
2023-08-07T06:40:55.520Z,80.30
2023-08-07T06:43:22.459Z,80.10
2023-08-07T06:45:52.842Z,80.20
2023-08-07T06:48:19.756Z,80.00
2023-08-07T06:50:50.167Z,80.60
2023-08-07T06:53:16.945Z,80.30
2023-08-07T06:55:43.759Z,80.40
2023-08-07T06:58:10.762Z,80.30
2023-08-07T07:00:37.795Z,80.20
2023-08-07T07:03:05.316Z,80.20
2023-08-07T07:05:32.870Z,80.20
2023-08-07T07:14:57.501Z,80.30
2023-08-07T07:17:24.145Z,80.30
2023-08-07T07:19:50.814Z,80.20
2023-08-07T07:22:17.437Z,80.80
2023-08-07T07:24:44.107Z,80.20
2023-08-07T07:27:10.726Z,81.00
2023-08-07T07:29:37.402Z,80.20
2023-08-07T07:32:04.305Z,80.40
2023-08-07T07:34:30.958Z,80.30
2023-08-07T07:36:57.707Z,80.30
2023-08-07T07:39:24.507Z,80.40
2023-08-07T07:41:51.176Z,80.20
2023-08-07T07:44:17.896Z,80.50
2023-08-07T07:46:44.561Z,80.60
2023-08-07T07:49:11.284Z,80.90
2023-08-07T07:51:38.715Z,80.70
2023-08-07T07:56:34.968Z,80.90
2023-08-07T07:59:01.777Z,80.80
2023-08-07T08:01:29.432Z,80.60
2023-08-07T08:03:56.204Z,81.00
2023-08-07T08:06:25.546Z,80.60
2023-08-07T08:11:30.001Z,80.50
2023-08-07T08:13:56.677Z,80.70
2023-08-07T08:16:23.417Z,80.80
2023-08-07T08:18:50.016Z,80.70
2023-08-07T08:21:16.640Z,80.70
2023-08-07T08:23:43.290Z,80.50
2023-08-07T08:26:09.917Z,80.50
2023-08-07T08:28:36.560Z,80.50
2023-08-07T08:31:03.210Z,80.80
2023-08-07T08:33:29.884Z,80.60
2023-08-07T08:35:56.484Z,80.60
2023-08-07T08:38:23.276Z,81.30
2023-08-07T08:40:51.793Z,80.60
2023-08-07T08:43:19.266Z,80.50
2023-08-07T08:45:46.048Z,80.30
2023-08-07T08:48:18.487Z,80.50
2023-08-07T08:50:45.282Z,80.70
2023-08-07T08:53:12.437Z,80.70
2023-08-07T08:55:39.204Z,80.80
2023-08-07T08:58:06.339Z,80.70
2023-08-07T09:00:33.152Z,80.60
2023-08-07T09:03:00.092Z,80.60
2023-08-07T09:05:28.188Z,80.50
2023-08-07T09:07:55.004Z,81.00
2023-08-07T09:10:21.761Z,80.30
2023-08-07T09:12:58.029Z,80.40
2023-08-07T09:15:25.929Z,80.10
2023-08-07T09:17:53.728Z,80.10
2023-08-07T09:20:20.690Z,79.90
2023-08-07T09:22:47.315Z,79.60
2023-08-07T09:25:14.505Z,79.60
2023-08-07T09:27:41.522Z,79.50
2023-08-07T09:30:11.107Z,79.20
2023-08-07T09:32:38.197Z,79.20
2023-08-07T09:35:07.837Z,79.30
2023-08-07T09:37:36.801Z,79.10
2023-08-07T09:40:03.737Z,78.90
2023-08-07T09:42:34.337Z,79.10
2023-08-07T09:45:01.580Z,78.80
2023-08-07T09:47:28.708Z,78.70
2023-08-07T09:49:56.073Z,78.70
2023-08-07T09:52:23.051Z,79.00
2023-08-07T09:54:49.658Z,78.50
2023-08-07T09:57:16.375Z,78.30
2023-08-07T09:59:50.176Z,78.50
2023-08-07T10:02:17.236Z,78.30
2023-08-07T10:04:44.015Z,78.30
2023-08-07T10:07:13.433Z,78.30
2023-08-07T10:09:40.436Z,78.60
2023-08-07T10:12:07.856Z,78.70
2023-08-07T10:14:34.507Z,78.50
2023-08-07T10:17:02.437Z,78.50
2023-08-07T10:19:29.043Z,78.30
2023-08-07T10:21:55.809Z,78.40
2023-08-07T10:24:23.866Z,78.40
2023-08-07T10:26:50.757Z,78.90
2023-08-07T10:29:19.144Z,78.90
2023-08-07T10:31:45.969Z,79.20
2023-08-07T10:34:12.878Z,78.70
2023-08-07T10:36:41.511Z,78.80
2023-08-07T10:39:12.386Z,78.80
2023-08-07T10:41:48.748Z,78.70
2023-08-07T10:44:22.747Z,78.60
2023-08-07T10:46:50.694Z,78.90
2023-08-07T10:49:35.400Z,79.50
2023-08-07T10:52:05.175Z,78.80
2023-08-07T10:54:31.863Z,78.90
2023-08-07T10:57:00.617Z,78.80
2023-08-07T10:59:29.982Z,78.90
2023-08-07T11:01:56.645Z,78.80
2023-08-07T11:04:25.950Z,78.80
2023-08-07T11:06:52.888Z,78.80
2023-08-07T11:09:19.568Z,78.30
2023-08-07T11:11:47.376Z,77.90
2023-08-07T11:14:14.376Z,78.20
2023-08-07T11:16:41.425Z,78.70
2023-08-07T11:19:08.874Z,78.50
2023-08-07T11:21:35.886Z,78.20
2023-08-07T11:24:02.894Z,78.60
2023-08-07T11:26:29.788Z,78.50
2023-08-07T11:28:56.677Z,78.70
2023-08-07T11:31:25.534Z,78.60
2023-08-07T11:33:52.905Z,78.50
2023-08-07T11:36:19.597Z,78.50
2023-08-07T11:38:46.308Z,78.80
2023-08-07T11:41:14.309Z,78.30
2023-08-07T11:43:41.556Z,78.80
2023-08-07T11:46:09.241Z,78.60
2023-08-07T11:48:37.065Z,78.80
2023-08-07T11:51:04.366Z,78.80
2023-08-07T11:53:35.122Z,78.80
2023-08-07T11:56:01.698Z,78.60
2023-08-07T11:58:29.241Z,78.30
2023-08-07T12:00:56.082Z,78.80
2023-08-07T12:03:27.796Z,78.80
2023-08-07T12:05:56.040Z,78.90
2023-08-07T12:08:22.885Z,78.90
2023-08-07T12:10:50.280Z,78.70
2023-08-07T12:13:16.912Z,79.10
2023-08-07T12:15:43.686Z,78.90
2023-08-07T12:18:10.471Z,79.00
2023-08-07T12:20:37.159Z,78.90
2023-08-07T12:23:03.760Z,79.00
2023-08-07T12:25:30.352Z,79.30
2023-08-07T12:27:57.000Z,79.20
2023-08-07T12:30:23.611Z,79.00
2023-08-07T12:32:50.355Z,79.20
2023-08-07T12:35:17.069Z,79.60
2023-08-07T12:37:43.745Z,79.00
2023-08-07T12:42:41.294Z,79.00
2023-08-07T12:45:08.100Z,79.10
2023-08-07T12:47:34.800Z,79.20
2023-08-07T12:50:01.756Z,79.00
2023-08-07T12:52:28.346Z,79.00
2023-08-07T12:54:55.027Z,79.00
2023-08-07T12:57:21.635Z,79.00
2023-08-07T12:59:48.221Z,79.20
2023-08-07T13:02:14.792Z,79.30
2023-08-07T13:04:41.409Z,79.00
2023-08-07T13:07:08.341Z,78.80
2023-08-07T13:09:35.054Z,79.00
2023-08-07T13:12:01.882Z,78.90
2023-08-07T13:14:28.558Z,78.90
2023-08-07T13:16:55.584Z,79.20
2023-08-07T13:19:22.850Z,79.00
2023-08-07T13:21:50.176Z,79.40
2023-08-07T13:24:18.758Z,79.30
2023-08-07T13:26:49.290Z,79.50
2023-08-07T13:29:15.936Z,79.60
2023-08-07T13:31:42.735Z,79.70
2023-08-07T13:34:11.801Z,79.60
2023-08-07T13:36:41.654Z,79.60
2023-08-07T13:39:08.327Z,79.70
2023-08-07T13:41:34.993Z,79.60
2023-08-07T13:44:01.717Z,79.70
2023-08-07T13:46:28.394Z,79.60
2023-08-07T13:48:55.122Z,80.30
2023-08-07T13:51:21.864Z,80.00
2023-08-07T13:53:48.487Z,79.80
2023-08-07T13:56:15.955Z,79.90
2023-08-07T13:58:43.547Z,79.50
2023-08-07T14:01:10.424Z,79.80
2023-08-07T14:03:37.222Z,80.20
2023-08-07T14:06:03.981Z,79.60
2023-08-07T14:08:30.626Z,79.90
2023-08-07T14:10:57.397Z,80.50
2023-08-07T14:13:24.565Z,79.60
2023-08-07T14:15:51.201Z,79.90
2023-08-07T14:18:18.015Z,80.30
2023-08-07T14:21:00.350Z,79.90
2023-08-07T14:23:30.491Z,80.20
2023-08-07T14:25:58.328Z,79.50
2023-08-07T14:28:24.961Z,79.70
2023-08-07T14:30:51.716Z,80.20
2023-08-07T14:33:18.518Z,80.30
2023-08-07T14:35:45.241Z,79.60
2023-08-07T14:38:11.853Z,80.00
2023-08-07T14:40:41.976Z,80.30
2023-08-07T14:43:08.775Z,79.80
2023-08-07T14:45:35.451Z,80.00
2023-08-07T14:48:02.188Z,79.80
2023-08-07T14:50:28.843Z,80.30
2023-08-07T14:52:55.429Z,80.00
2023-08-07T14:55:22.095Z,79.70
2023-08-07T14:57:48.731Z,79.70
2023-08-07T15:00:15.812Z,80.10
2023-08-07T15:02:42.430Z,79.70
2023-08-07T15:05:09.164Z,79.80
2023-08-07T15:07:35.917Z,79.90
2023-08-07T15:10:02.586Z,79.80
2023-08-07T15:12:29.187Z,79.70
2023-08-07T15:14:55.965Z,79.60
2023-08-07T15:17:22.676Z,79.70
2023-08-07T15:19:49.326Z,79.70
2023-08-07T15:22:15.947Z,79.90
2023-08-07T15:24:42.636Z,79.60
2023-08-07T15:27:09.237Z,80.00
2023-08-07T15:29:35.984Z,79.70
2023-08-07T15:32:02.699Z,79.50
2023-08-07T15:34:29.456Z,79.60
2023-08-07T15:36:56.397Z,79.30
2023-08-07T15:39:23.321Z,78.90
2023-08-07T15:41:49.937Z,79.20
2023-08-07T15:44:16.557Z,79.20
2023-08-07T15:46:43.187Z,79.40
2023-08-07T15:49:10.096Z,79.10
2023-08-07T15:51:36.745Z,79.90
2023-08-07T15:54:03.531Z,79.70
2023-08-07T15:56:30.225Z,79.40
2023-08-07T15:58:56.848Z,79.40
2023-08-07T16:01:23.467Z,79.20
2023-08-07T16:03:50.061Z,79.30
2023-08-07T16:06:16.762Z,79.10
2023-08-07T16:08:43.380Z,79.20
2023-08-07T16:11:10.207Z,78.90
2023-08-07T16:13:36.853Z,79.40
2023-08-07T16:16:03.579Z,79.40
2023-08-07T16:18:30.187Z,79.10
2023-08-07T16:20:57.655Z,79.40
2023-08-07T16:23:24.305Z,79.20
2023-08-07T16:25:50.923Z,79.20
2023-08-07T16:28:17.681Z,78.90
2023-08-07T16:30:44.316Z,78.90
2023-08-07T16:33:11.068Z,79.00
2023-08-07T16:35:37.778Z,79.20
2023-08-07T16:38:04.489Z,79.20
2023-08-07T16:40:36.030Z,79.10
2023-08-07T16:43:03.459Z,79.20
2023-08-07T16:45:30.242Z,79.00
2023-08-07T16:48:01.355Z,78.50
2023-08-07T16:50:29.261Z,78.80
2023-08-07T16:52:57.372Z,79.60
2023-08-07T16:55:24.153Z,79.30
2023-08-07T16:57:50.757Z,79.00
2023-08-07T17:00:17.608Z,78.50
2023-08-07T17:02:45.873Z,78.30
2023-08-07T17:05:12.564Z,78.80
2023-08-07T17:07:39.253Z,78.60
2023-08-07T17:10:06.520Z,78.80
2023-08-07T17:12:33.199Z,78.90
2023-08-07T17:14:59.818Z,79.00
2023-08-07T17:17:26.587Z,78.60
2023-08-07T17:19:53.282Z,78.40
2023-08-07T17:22:19.900Z,78.40
2023-08-07T17:24:46.493Z,77.90
2023-08-07T17:27:13.121Z,78.60
2023-08-07T17:29:39.734Z,78.70
2023-08-07T17:32:07.266Z,78.50
2023-08-07T17:34:33.888Z,78.40
2023-08-07T17:37:00.769Z,78.30
2023-08-07T17:39:27.752Z,78.50
2023-08-07T17:41:54.451Z,78.80
2023-08-07T17:44:21.126Z,78.40
2023-08-07T17:46:47.857Z,78.50
2023-08-07T17:49:14.767Z,78.70
2023-08-07T17:51:41.415Z,79.20
2023-08-07T17:54:08.077Z,78.60
2023-08-07T17:56:37.016Z,78.60
2023-08-07T17:59:03.664Z,78.80
2023-08-07T18:01:33.399Z,78.40
2023-08-07T18:04:03.074Z,78.30
2023-08-07T18:06:29.879Z,78.40
2023-08-07T18:08:57.193Z,78.40
2023-08-07T18:11:23.824Z,78.30
2023-08-07T18:13:50.467Z,78.00
2023-08-07T18:16:17.799Z,78.50
2023-08-07T18:18:44.628Z,78.30
2023-08-07T18:21:11.458Z,78.40
2023-08-07T18:23:38.112Z,78.30
2023-08-07T18:26:04.713Z,78.20
2023-08-07T18:28:32.468Z,78.20
2023-08-07T18:30:59.345Z,78.30
2023-08-07T18:33:27.811Z,78.30
2023-08-07T18:35:55.334Z,78.00
2023-08-07T18:38:21.995Z,78.50
2023-08-07T18:40:48.620Z,78.30
2023-08-07T18:43:15.218Z,78.30
2023-08-07T18:45:41.824Z,77.80
2023-08-07T18:48:09.108Z,77.70
2023-08-07T18:50:35.830Z,77.80
2023-08-07T18:53:02.871Z,78.30
2023-08-07T18:55:29.558Z,78.30
2023-08-07T18:57:56.179Z,78.00
2023-08-07T19:00:22.797Z,78.00
2023-08-07T19:02:49.582Z,78.50
2023-08-07T19:05:16.281Z,78.50
2023-08-07T19:07:43.035Z,78.00
2023-08-07T19:10:09.898Z,78.80
2023-08-07T19:12:36.574Z,78.20
2023-08-07T19:15:03.938Z,77.90
2023-08-07T19:17:30.725Z,78.00
2023-08-07T19:19:57.375Z,78.00
2023-08-07T19:22:26.531Z,77.80
2023-08-07T19:24:53.452Z,77.70
2023-08-07T19:27:20.230Z,78.50
2023-08-07T19:29:46.847Z,78.10
2023-08-07T19:32:15.312Z,77.50
2023-08-07T19:34:41.922Z,78.10
2023-08-07T19:37:08.608Z,78.10
2023-08-07T19:39:35.286Z,78.40
2023-08-07T19:42:02.482Z,78.30
2023-08-07T19:44:29.307Z,77.80
2023-08-07T19:46:56.190Z,78.30
2023-08-07T19:49:23.050Z,77.20
2023-08-07T19:51:49.677Z,77.20
2023-08-07T19:54:16.343Z,77.60
2023-08-07T19:56:42.937Z,78.10
2023-08-07T19:59:09.578Z,78.40
2023-08-07T20:01:36.342Z,78.00
2023-08-07T20:04:03.149Z,77.80
2023-08-07T20:06:29.915Z,76.90
2023-08-07T20:08:57.116Z,77.60
2023-08-07T20:11:26.946Z,77.40
2023-08-07T20:13:53.642Z,77.40
2023-08-07T20:16:20.597Z,77.30
2023-08-07T20:18:47.339Z,77.30
2023-08-07T20:21:15.692Z,77.50
2023-08-07T20:23:43.297Z,77.80
2023-08-07T20:26:10.463Z,77.60
2023-08-07T20:28:37.098Z,77.30
2023-08-07T20:31:03.766Z,77.10
2023-08-07T20:33:30.492Z,77.80
2023-08-07T20:35:57.091Z,78.00
2023-08-07T20:38:23.685Z,78.00
2023-08-07T20:40:50.291Z,78.10
2023-08-07T20:43:16.954Z,78.10
2023-08-07T20:45:45.712Z,77.80
2023-08-07T20:48:12.368Z,78.00
2023-08-07T20:50:38.967Z,77.20
2023-08-07T20:53:05.592Z,78.10
2023-08-07T20:55:32.228Z,78.00
2023-08-07T20:57:59.704Z,77.40
2023-08-07T21:00:26.768Z,77.80
2023-08-07T21:02:53.438Z,77.50
2023-08-07T21:05:20.132Z,76.70
2023-08-07T21:07:47.503Z,77.30
2023-08-07T21:10:15.000Z,77.00
2023-08-07T21:12:41.757Z,77.90
2023-08-07T21:15:09.099Z,78.80
2023-08-07T21:17:35.802Z,77.40
2023-08-07T21:20:02.907Z,76.60
2023-08-07T21:22:29.584Z,78.00
2023-08-07T21:24:56.217Z,77.50
2023-08-07T21:27:23.975Z,77.60
2023-08-07T21:29:50.572Z,77.40
2023-08-07T21:32:17.179Z,77.60
2023-08-07T21:34:43.788Z,77.10
2023-08-07T21:37:10.420Z,79.00
2023-08-07T21:39:37.066Z,77.50
2023-08-07T21:42:03.777Z,77.80
2023-08-07T21:44:30.465Z,76.90
2023-08-07T21:46:57.056Z,77.40
2023-08-07T21:49:23.694Z,76.90
2023-08-07T21:51:50.297Z,77.70
2023-08-07T21:54:17.154Z,77.90
2023-08-07T21:56:43.898Z,77.80
2023-08-07T21:59:10.650Z,77.10
2023-08-07T22:01:37.604Z,77.30
2023-08-07T22:04:04.443Z,77.40
2023-08-07T22:06:31.095Z,77.90
2023-08-07T22:08:57.720Z,78.00
2023-08-07T22:11:24.344Z,76.90
2023-08-07T22:13:50.961Z,76.90
2023-08-07T22:16:17.610Z,77.90
2023-08-07T22:18:44.246Z,78.00
2023-08-07T22:21:10.917Z,78.30
2023-08-07T22:23:37.527Z,78.00
2023-08-07T22:26:04.125Z,77.80
2023-08-07T22:28:30.785Z,78.60
2023-08-07T22:30:57.382Z,78.30
2023-08-07T22:33:24.166Z,78.70
2023-08-07T22:35:50.910Z,77.70
2023-08-07T22:38:17.553Z,77.60
2023-08-07T22:40:44.289Z,78.30
2023-08-07T22:43:12.803Z,77.60
2023-08-07T22:45:39.907Z,78.00
2023-08-07T22:48:06.641Z,78.40
2023-08-07T22:50:33.385Z,77.30
2023-08-07T22:53:00.031Z,77.80
2023-08-07T22:55:26.729Z,77.90
2023-08-07T22:57:53.364Z,77.20
2023-08-07T23:00:20.073Z,77.80
2023-08-07T23:02:46.889Z,77.00
2023-08-07T23:05:13.704Z,78.30
2023-08-07T23:07:40.624Z,78.40
2023-08-07T23:10:08.002Z,78.00
2023-08-07T23:12:34.666Z,78.20
2023-08-07T23:15:01.334Z,77.70
2023-08-07T23:17:28.046Z,77.90
2023-08-07T23:19:54.717Z,79.20
2023-08-07T23:22:21.437Z,78.20
2023-08-07T23:24:48.194Z,78.60
2023-08-07T23:27:14.865Z,78.80
2023-08-07T23:29:42.780Z,77.70
2023-08-07T23:32:09.488Z,77.70
2023-08-07T23:34:36.367Z,78.10
2023-08-07T23:37:03.173Z,78.20
2023-08-07T23:39:30.589Z,77.90
2023-08-07T23:41:58.572Z,77.80
2023-08-07T23:44:25.463Z,77.30
2023-08-07T23:46:52.187Z,77.20
2023-08-07T23:49:18.978Z,78.20
2023-08-07T23:51:45.658Z,77.40
2023-08-07T23:54:12.317Z,77.80
2023-08-07T23:56:38.986Z,78.30
2023-08-07T23:59:05.701Z,78.00
